createdAt,value
2024-01-06T00:00:08.576Z,661.00
2024-01-06T00:01:08.678Z,658.00
2024-01-06T00:02:08.553Z,657.00
2024-01-06T00:03:08.609Z,656.00
2024-01-06T00:04:08.668Z,655.00
2024-01-06T00:05:08.556Z,651.00
2024-01-06T00:06:08.682Z,650.00
2024-01-06T00:07:08.548Z,651.00
2024-01-06T00:08:08.513Z,649.00
2024-01-06T00:09:08.548Z,647.00
2024-01-06T00:10:08.527Z,646.00
2024-01-06T00:11:08.490Z,645.00
2024-01-06T00:12:08.515Z,645.00
2024-01-06T00:13:08.481Z,644.00
2024-01-06T00:14:08.484Z,643.00
2024-01-06T00:15:08.515Z,641.00
2024-01-06T00:16:08.456Z,643.00
2024-01-06T00:17:08.445Z,642.00
2024-01-06T00:18:08.609Z,641.00
2024-01-06T00:19:08.613Z,641.00
2024-01-06T00:20:08.653Z,642.00
2024-01-06T00:21:08.436Z,639.00
2024-01-06T00:22:08.389Z,638.00
2024-01-06T00:23:08.372Z,638.00
2024-01-06T00:24:08.400Z,638.00
2024-01-06T00:25:08.348Z,640.00
2024-01-06T00:26:08.333Z,640.00
2024-01-06T00:27:08.347Z,638.00
2024-01-06T00:28:08.325Z,638.00
2024-01-06T00:29:08.293Z,638.00
2024-01-06T00:30:08.324Z,638.00
2024-01-06T00:31:08.372Z,638.00
2024-01-06T00:32:08.241Z,638.00
2024-01-06T00:33:08.307Z,638.00
2024-01-06T00:34:08.236Z,638.00
2024-01-06T00:35:08.263Z,636.00
2024-01-06T00:36:08.200Z,638.00
2024-01-06T00:37:08.131Z,637.00
2024-01-06T00:38:08.128Z,636.00
2024-01-06T00:39:08.141Z,637.00
2024-01-06T00:40:08.099Z,632.00
2024-01-06T00:41:08.054Z,637.00
2024-01-06T00:42:08.100Z,636.00
2024-01-06T00:43:08.033Z,636.00
2024-01-06T00:44:07.994Z,636.00
2024-01-06T00:45:08.013Z,637.00
2024-01-06T00:46:07.953Z,637.00
2024-01-06T00:47:07.971Z,637.00
2024-01-06T00:48:08.005Z,635.00
2024-01-06T00:49:07.989Z,636.00
2024-01-06T00:50:07.899Z,637.00
2024-01-06T00:51:07.932Z,637.00
2024-01-06T00:52:07.878Z,637.00
2024-01-06T00:53:07.863Z,638.00
2024-01-06T00:54:07.894Z,635.00
2024-01-06T00:55:07.816Z,636.00
2024-01-06T00:56:07.806Z,636.00
2024-01-06T00:57:07.816Z,636.00
2024-01-06T00:58:07.793Z,636.00
2024-01-06T00:59:07.774Z,636.00
2024-01-06T01:00:07.805Z,637.00
2024-01-06T01:01:07.845Z,636.00
2024-01-06T01:02:07.715Z,637.00
2024-01-06T01:03:07.729Z,635.00
2024-01-06T01:04:07.786Z,635.00
2024-01-06T01:05:07.705Z,636.00
2024-01-06T01:06:07.641Z,636.00
2024-01-06T01:07:07.611Z,636.00
2024-01-06T01:08:07.600Z,635.00
2024-01-06T01:09:07.651Z,636.00
2024-01-06T01:10:07.561Z,636.00
2024-01-06T01:11:07.526Z,636.00
2024-01-06T01:12:07.614Z,637.00
2024-01-06T01:13:07.496Z,637.00
2024-01-06T01:14:07.510Z,638.00
2024-01-06T01:15:07.493Z,637.00
2024-01-06T01:16:07.437Z,637.00
2024-01-06T01:17:07.430Z,635.00
2024-01-06T01:18:07.665Z,635.00
2024-01-06T01:19:07.424Z,636.00
2024-01-06T01:20:07.385Z,636.00
2024-01-06T01:21:07.372Z,637.00
2024-01-06T01:22:07.349Z,635.00
2024-01-06T01:23:07.308Z,636.00
2024-01-06T01:24:07.340Z,635.00
2024-01-06T01:25:07.263Z,634.00
2024-01-06T01:26:07.239Z,635.00
2024-01-06T01:27:07.229Z,635.00
2024-01-06T01:28:07.212Z,634.00
2024-01-06T01:29:07.186Z,634.00
2024-01-06T01:30:07.297Z,634.00
2024-01-06T01:31:07.228Z,635.00
2024-01-06T01:32:07.400Z,634.00
2024-01-06T01:33:07.778Z,636.00
2024-01-06T01:34:07.242Z,637.00
2024-01-06T01:35:07.160Z,637.00
2024-01-06T01:36:07.149Z,637.00
2024-01-06T01:37:07.081Z,637.00
2024-01-06T01:38:07.722Z,636.00
2024-01-06T01:39:07.109Z,636.00
2024-01-06T01:40:07.047Z,637.00
2024-01-06T01:41:07.026Z,637.00
2024-01-06T01:42:07.027Z,637.00
2024-01-06T01:43:07.514Z,637.00
2024-01-06T01:44:06.978Z,637.00
2024-01-06T01:45:07.051Z,636.00
2024-01-06T01:46:06.951Z,636.00
2024-01-06T01:47:06.939Z,636.00
2024-01-06T01:48:07.221Z,636.00
2024-01-06T01:49:07.078Z,637.00
2024-01-06T01:50:06.928Z,636.00
2024-01-06T01:51:06.909Z,636.00
2024-01-06T01:52:06.871Z,636.00
2024-01-06T01:53:06.846Z,636.00
2024-01-06T01:54:06.894Z,636.00
2024-01-06T01:55:06.831Z,635.00
2024-01-06T01:56:06.799Z,637.00
2024-01-06T01:57:06.798Z,637.00
2024-01-06T01:58:06.785Z,637.00
2024-01-06T01:59:06.782Z,636.00
2024-01-06T02:00:06.814Z,637.00
2024-01-06T02:01:06.824Z,634.00
2024-01-06T02:02:06.740Z,632.00
2024-01-06T02:03:20.043Z,636.00
2024-01-06T02:04:06.750Z,636.00
2024-01-06T02:05:06.758Z,637.00
2024-01-06T02:06:06.742Z,638.00
2024-01-06T02:07:06.700Z,639.00
2024-01-06T02:14:06.511Z,636.00
2024-01-06T02:15:06.502Z,646.00
2024-01-06T02:16:06.466Z,662.00
2024-01-06T02:17:06.452Z,705.00
2024-01-06T02:18:06.563Z,758.00
2024-01-06T02:19:06.507Z,793.00
2024-01-06T02:20:06.404Z,771.00
2024-01-06T02:21:06.452Z,749.00
2024-01-06T02:22:06.373Z,732.00
2024-01-06T02:23:06.391Z,714.00
2024-01-06T02:24:06.361Z,704.00
2024-01-06T02:25:06.337Z,694.00
2024-01-06T02:26:06.319Z,682.00
2024-01-06T02:27:06.297Z,674.00
2024-01-06T02:28:06.279Z,666.00
2024-01-06T02:29:06.334Z,664.00
2024-01-06T02:30:06.282Z,661.00
2024-01-06T02:31:06.318Z,659.00
2024-01-06T02:32:06.199Z,660.00
2024-01-06T02:33:06.242Z,656.00
2024-01-06T02:34:06.206Z,656.00
2024-01-06T02:35:06.153Z,657.00
2024-01-06T02:36:06.120Z,656.00
2024-01-06T02:37:06.110Z,653.00
2024-01-06T02:38:06.110Z,652.00
2024-01-06T02:39:06.091Z,650.00
2024-01-06T02:40:06.088Z,650.00
2024-01-06T02:41:06.086Z,649.00
2024-01-06T02:42:06.074Z,648.00
2024-01-06T02:43:06.043Z,649.00
2024-01-06T02:44:06.035Z,646.00
2024-01-06T02:45:06.031Z,645.00
2024-01-06T02:46:06.001Z,644.00
2024-01-06T02:47:05.988Z,646.00
2024-01-06T02:48:06.081Z,645.00
2024-01-06T02:49:06.042Z,641.00
2024-01-06T02:50:05.942Z,643.00
2024-01-06T02:51:05.908Z,643.00
2024-01-06T02:52:05.904Z,642.00
2024-01-06T02:53:05.899Z,641.00
2024-01-06T02:54:05.878Z,641.00
2024-01-06T02:55:05.863Z,640.00
2024-01-06T02:56:05.831Z,640.00
2024-01-06T02:57:05.817Z,640.00
2024-01-06T02:58:05.812Z,640.00
2024-01-06T02:59:05.780Z,640.00
2024-01-06T03:00:05.749Z,639.00
2024-01-06T03:01:06.034Z,639.00
2024-01-06T03:02:05.739Z,638.00
2024-01-06T03:03:05.814Z,639.00
2024-01-06T03:04:05.960Z,638.00
2024-01-06T03:05:05.742Z,638.00
2024-01-06T03:06:05.682Z,637.00
2024-01-06T03:07:05.663Z,637.00
2024-01-06T03:08:05.663Z,636.00
2024-01-06T03:09:05.645Z,638.00
2024-01-06T03:10:05.628Z,637.00
2024-01-06T03:11:05.602Z,638.00
2024-01-06T03:12:05.605Z,634.00
2024-01-06T03:13:05.749Z,637.00
2024-01-06T03:14:05.584Z,636.00
2024-01-06T03:15:05.566Z,635.00
2024-01-06T03:16:05.540Z,636.00
2024-01-06T03:17:05.525Z,636.00
2024-01-06T03:18:05.573Z,636.00
2024-01-06T03:19:05.592Z,636.00
2024-01-06T03:20:05.458Z,637.00
2024-01-06T03:21:05.478Z,637.00
2024-01-06T03:22:05.456Z,636.00
2024-01-06T03:23:05.432Z,637.00
2024-01-06T03:24:05.426Z,638.00
2024-01-06T03:25:05.409Z,637.00
2024-01-06T03:26:05.387Z,637.00
2024-01-06T03:27:05.370Z,638.00
2024-01-06T03:28:05.364Z,637.00
2024-01-06T03:29:05.356Z,636.00
2024-01-06T03:30:05.355Z,637.00
2024-01-06T03:31:05.384Z,637.00
2024-01-06T03:32:05.320Z,636.00
2024-01-06T03:33:05.686Z,637.00
2024-01-06T03:34:05.388Z,637.00
2024-01-06T03:35:05.277Z,637.00
2024-01-06T03:36:05.275Z,637.00
2024-01-06T03:37:05.242Z,636.00
2024-01-06T03:38:05.241Z,637.00
2024-01-06T03:39:05.214Z,637.00
2024-01-06T03:40:05.207Z,636.00
2024-01-06T03:41:05.184Z,636.00
2024-01-06T03:42:05.177Z,637.00
2024-01-06T03:43:05.198Z,637.00
2024-01-06T03:44:05.141Z,636.00
2024-01-06T03:45:05.122Z,637.00
2024-01-06T03:46:05.108Z,637.00
2024-01-06T03:47:05.087Z,636.00
2024-01-06T03:48:05.212Z,637.00
2024-01-06T03:49:05.197Z,636.00
2024-01-06T03:50:05.042Z,636.00
2024-01-06T03:51:05.081Z,636.00
2024-01-06T03:52:05.048Z,636.00
2024-01-06T03:53:04.988Z,637.00
2024-01-06T03:54:04.964Z,636.00
2024-01-06T03:55:04.960Z,637.00
2024-01-06T03:56:04.935Z,636.00
2024-01-06T03:57:04.926Z,636.00
2024-01-06T03:58:04.931Z,639.00
2024-01-06T03:59:04.904Z,637.00
2024-01-06T04:00:04.895Z,638.00
2024-01-06T04:01:05.018Z,636.00
2024-01-06T04:02:04.846Z,636.00
2024-01-06T04:03:04.871Z,637.00
2024-01-06T04:04:05.013Z,635.00
2024-01-06T04:05:04.812Z,635.00
2024-01-06T04:06:04.828Z,634.00
2024-01-06T04:07:04.776Z,636.00
2024-01-06T04:09:04.735Z,635.00
2024-01-06T04:10:04.747Z,636.00
2024-01-06T04:11:04.691Z,640.00
2024-01-06T04:12:04.716Z,643.00
2024-01-06T04:20:25.431Z,635.00
2024-01-06T04:21:04.398Z,638.00
2024-01-06T04:22:04.386Z,652.00
2024-01-06T04:23:17.575Z,686.00
2024-01-06T04:24:04.353Z,638.00
2024-01-06T04:25:04.328Z,649.00
2024-01-06T04:26:04.305Z,667.00
2024-01-06T04:27:04.283Z,720.00
2024-01-06T04:28:04.312Z,777.00
2024-01-06T04:29:04.266Z,778.00
2024-01-06T04:30:04.313Z,753.00
2024-01-06T04:31:04.505Z,737.00
2024-01-06T04:32:04.204Z,724.00
2024-01-06T04:33:04.315Z,715.00
2024-01-06T04:34:04.368Z,702.00
2024-01-06T04:35:04.170Z,690.00
2024-01-06T04:36:04.141Z,684.00
2024-01-06T04:37:04.105Z,673.00
2024-01-06T04:38:04.109Z,668.00
2024-01-06T04:39:04.089Z,665.00
2024-01-06T04:40:04.111Z,662.00
2024-01-06T04:41:04.026Z,660.00
2024-01-06T04:42:04.017Z,658.00
2024-01-06T04:43:03.980Z,656.00
2024-01-06T04:44:11.289Z,600.00
2024-01-06T04:45:11.358Z,600.00
2024-01-06T04:46:11.336Z,600.00
2024-01-06T04:47:11.318Z,600.00
2024-01-06T04:48:11.572Z,600.00
2024-01-06T04:49:11.664Z,600.00
2024-01-06T04:50:11.404Z,600.00
2024-01-06T04:51:11.575Z,601.00
2024-01-06T04:52:11.415Z,601.00
2024-01-06T04:53:11.461Z,602.00
2024-01-06T04:54:11.499Z,600.00
2024-01-06T04:55:11.535Z,601.00
2024-01-06T04:56:11.607Z,600.00
2024-01-06T04:57:11.689Z,601.00
2024-01-06T04:58:11.764Z,601.00
2024-01-06T04:59:11.851Z,600.00
2024-01-06T05:00:11.986Z,600.00
2024-01-06T05:01:12.022Z,600.00
2024-01-06T05:02:11.970Z,600.00
2024-01-06T05:03:12.070Z,598.00
2024-01-06T05:04:12.069Z,598.00
2024-01-06T05:05:12.071Z,599.00
2024-01-06T05:06:12.092Z,600.00
2024-01-06T05:07:12.190Z,600.00
2024-01-06T05:08:12.141Z,600.00
2024-01-06T05:09:12.284Z,601.00
2024-01-06T05:10:12.299Z,601.00
2024-01-06T05:11:12.382Z,601.00
2024-01-06T05:12:12.508Z,601.00
2024-01-06T05:13:12.572Z,602.00
2024-01-06T05:14:12.673Z,600.00
2024-01-06T05:15:12.778Z,600.00
2024-01-06T05:16:12.841Z,600.00
2024-01-06T05:17:12.947Z,601.00
2024-01-06T05:18:13.125Z,603.00
2024-01-06T05:19:13.433Z,602.00
2024-01-06T05:20:13.344Z,601.00
2024-01-06T05:21:13.375Z,601.00
2024-01-06T05:22:13.342Z,601.00
2024-01-06T05:23:13.403Z,602.00
2024-01-06T05:24:13.421Z,601.00
2024-01-06T05:25:13.378Z,601.00
2024-01-06T05:26:13.406Z,601.00
2024-01-06T05:27:14.278Z,602.00
2024-01-06T05:28:13.472Z,601.00
2024-01-06T05:29:13.447Z,601.00
2024-01-06T05:30:13.646Z,601.00
2024-01-06T05:31:13.652Z,602.00
2024-01-06T05:32:13.553Z,600.00
2024-01-06T05:33:14.799Z,601.00
2024-01-06T05:34:13.682Z,601.00
2024-01-06T05:35:13.684Z,601.00
2024-01-06T05:36:13.691Z,600.00
2024-01-06T05:37:13.690Z,600.00
2024-01-06T05:38:13.733Z,601.00
2024-01-06T05:39:13.819Z,601.00
2024-01-06T05:40:13.781Z,601.00
2024-01-06T05:41:13.801Z,600.00
2024-01-06T05:42:13.841Z,601.00
2024-01-06T05:43:13.843Z,601.00
2024-01-06T05:44:13.886Z,601.00
2024-01-06T05:45:13.989Z,600.00
2024-01-06T05:46:13.919Z,600.00
2024-01-06T05:47:13.989Z,601.00
2024-01-06T05:48:14.130Z,601.00
2024-01-06T05:49:14.760Z,600.00
2024-01-06T05:50:14.045Z,601.00
2024-01-06T05:51:14.082Z,601.00
2024-01-06T05:52:14.075Z,600.00
2024-01-06T05:53:14.109Z,601.00
2024-01-06T05:54:14.172Z,601.00
2024-01-06T05:55:14.210Z,601.00
2024-01-06T05:56:14.285Z,601.00
2024-01-06T05:57:14.418Z,600.00
2024-01-06T05:58:14.493Z,600.00
2024-01-06T05:59:14.945Z,600.00
2024-01-06T06:00:14.647Z,600.00
2024-01-06T06:01:14.680Z,600.00
2024-01-06T06:02:14.675Z,600.00
2024-01-06T06:03:14.864Z,601.00
2024-01-06T06:04:14.933Z,601.00
2024-01-06T06:05:14.964Z,601.00
2024-01-06T06:06:15.003Z,601.00
2024-01-06T06:07:15.026Z,601.00
2024-01-06T06:08:15.047Z,601.00
2024-01-06T06:09:15.143Z,601.00
2024-01-06T06:10:15.195Z,601.00
2024-01-06T06:11:15.124Z,602.00
2024-01-06T06:12:15.206Z,601.00
2024-01-06T06:13:15.180Z,600.00
2024-01-06T06:14:15.604Z,601.00
2024-01-06T06:15:15.375Z,603.00
2024-01-06T06:16:15.434Z,601.00
2024-01-06T06:17:15.535Z,600.00
2024-01-06T06:18:15.740Z,602.00
2024-01-06T06:21:25.851Z,601.00
2024-01-06T06:22:15.783Z,602.00
2024-01-06T06:23:15.787Z,607.00
2024-01-06T06:28:15.898Z,601.00
2024-01-06T06:29:26.456Z,609.00
2024-01-06T06:30:16.100Z,603.00
2024-01-06T06:31:16.115Z,614.00
2024-01-06T06:32:15.994Z,629.00
2024-01-06T06:33:16.164Z,647.00
2024-01-06T06:34:16.282Z,665.00
2024-01-06T06:35:16.058Z,666.00
2024-01-06T06:36:16.115Z,661.00
2024-01-06T06:37:16.117Z,654.00
2024-01-06T06:38:16.150Z,647.00
2024-01-06T06:39:16.263Z,643.00
2024-01-06T06:40:16.194Z,639.00
2024-01-06T06:41:16.225Z,639.00
2024-01-06T06:42:16.307Z,635.00
2024-01-06T06:43:19.252Z,631.00
2024-01-06T06:44:16.304Z,633.00
2024-01-06T06:45:16.397Z,630.00
2024-01-06T06:46:16.359Z,626.00
2024-01-06T06:47:16.380Z,624.00
2024-01-06T06:48:16.525Z,622.00
2024-01-06T06:49:16.532Z,620.00
2024-01-06T06:50:16.495Z,619.00
2024-01-06T06:51:16.538Z,617.00
2024-01-06T06:52:16.584Z,616.00
2024-01-06T06:53:16.677Z,616.00
2024-01-06T06:54:16.802Z,613.00
2024-01-06T06:55:16.801Z,613.00
2024-01-06T06:56:16.837Z,613.00
2024-01-06T06:57:16.866Z,613.00
2024-01-06T06:58:16.883Z,613.00
2024-01-06T06:59:16.909Z,613.00
2024-01-06T07:00:16.963Z,612.00
2024-01-06T07:01:17.133Z,610.00
2024-01-06T07:02:16.997Z,611.00
2024-01-06T07:03:17.159Z,611.00
2024-01-06T07:04:17.095Z,612.00
2024-01-06T07:05:17.115Z,610.00
2024-01-06T07:06:17.182Z,608.00
2024-01-06T07:07:17.249Z,608.00
2024-01-06T07:08:17.328Z,607.00
2024-01-06T07:09:19.125Z,608.00
2024-01-06T07:10:17.468Z,608.00
2024-01-06T07:11:17.475Z,608.00
2024-01-06T07:12:17.517Z,607.00
2024-01-06T07:13:17.532Z,608.00
2024-01-06T07:14:17.553Z,607.00
2024-01-06T07:15:17.628Z,606.00
2024-01-06T07:16:19.511Z,606.00
2024-01-06T07:17:17.630Z,605.00
2024-01-06T07:18:17.897Z,607.00
2024-01-06T07:19:17.990Z,605.00
2024-01-06T07:20:17.934Z,606.00
2024-01-06T07:21:18.079Z,604.00
2024-01-06T07:22:18.131Z,603.00
2024-01-06T07:23:18.228Z,604.00
2024-01-06T07:24:18.320Z,603.00
2024-01-06T07:25:18.417Z,604.00
2024-01-06T07:26:18.511Z,602.00
2024-01-06T07:27:18.620Z,603.00
2024-01-06T07:28:18.650Z,603.00
2024-01-06T07:29:18.700Z,603.00
2024-01-06T07:30:18.759Z,603.00
2024-01-06T07:31:18.902Z,603.00
2024-01-06T07:32:18.727Z,604.00
2024-01-06T07:33:18.824Z,603.00
2024-01-06T07:34:18.851Z,602.00
2024-01-06T07:35:18.814Z,602.00
2024-01-06T07:36:18.929Z,602.00
2024-01-06T07:37:18.889Z,602.00
2024-01-06T07:38:18.898Z,603.00
2024-01-06T07:39:18.925Z,602.00
2024-01-06T07:40:18.942Z,603.00
2024-01-06T07:41:18.970Z,602.00
2024-01-06T07:42:19.023Z,602.00
2024-01-06T07:43:19.076Z,604.00
2024-01-06T07:44:19.180Z,601.00
2024-01-06T07:45:19.385Z,602.00
2024-01-06T07:46:20.740Z,602.00
2024-01-06T07:47:19.449Z,602.00
2024-01-06T07:48:19.689Z,601.00
2024-01-06T07:49:19.763Z,601.00
2024-01-06T07:50:19.756Z,602.00
2024-01-06T07:51:19.848Z,602.00
2024-01-06T07:52:19.934Z,602.00
2024-01-06T07:53:20.004Z,601.00
2024-01-06T07:54:20.138Z,602.00
2024-01-06T07:55:20.213Z,601.00
2024-01-06T07:56:20.232Z,601.00
2024-01-06T07:57:20.291Z,601.00
2024-01-06T07:58:20.275Z,601.00
2024-01-06T07:59:20.317Z,602.00
2024-01-06T08:00:20.396Z,602.00
2024-01-06T08:01:20.436Z,602.00
2024-01-06T08:02:20.395Z,604.00
2024-01-06T08:03:20.489Z,602.00
2024-01-06T08:04:20.556Z,603.00
2024-01-06T08:05:20.679Z,603.00
2024-01-06T08:06:20.675Z,602.00
2024-01-06T08:07:20.661Z,602.00
2024-01-06T08:08:20.647Z,602.00
2024-01-06T08:09:20.696Z,602.00
2024-01-06T08:10:20.719Z,602.00
2024-01-06T08:11:20.760Z,602.00
2024-01-06T08:12:20.839Z,602.00
2024-01-06T08:13:20.821Z,602.00
2024-01-06T08:14:20.823Z,603.00
2024-01-06T08:15:20.866Z,604.00
2024-01-06T08:16:20.878Z,603.00
2024-01-06T08:17:20.901Z,603.00
2024-01-06T08:18:21.168Z,603.00
2024-01-06T08:19:21.015Z,602.00
2024-01-06T08:20:20.980Z,604.00
2024-01-06T08:21:21.046Z,601.00
2024-01-06T08:22:21.054Z,603.00
2024-01-06T08:23:21.066Z,600.00
2024-01-06T08:24:21.188Z,600.00
2024-01-06T08:25:21.185Z,601.00
2024-01-06T08:26:21.273Z,601.00
2024-01-06T08:27:21.331Z,601.00
2024-01-06T08:28:21.340Z,601.00
2024-01-06T08:29:21.350Z,601.00
2024-01-06T08:30:21.498Z,602.00
2024-01-06T08:31:21.496Z,602.00
2024-01-06T08:32:21.441Z,602.00
2024-01-06T08:33:21.653Z,602.00
2024-01-06T08:34:21.561Z,601.00
2024-01-06T08:35:21.519Z,602.00
2024-01-06T08:36:21.629Z,602.00
2024-01-06T08:37:21.656Z,600.00
2024-01-06T08:38:21.685Z,600.00
2024-01-06T08:39:21.730Z,601.00
2024-01-06T08:40:21.737Z,601.00
2024-01-06T08:41:21.762Z,601.00
2024-01-06T08:42:21.805Z,601.00
2024-01-06T08:43:21.824Z,601.00
2024-01-06T08:44:21.834Z,600.00
2024-01-06T08:45:21.859Z,602.00
2024-01-06T08:46:21.884Z,602.00
2024-01-06T08:47:21.902Z,601.00
2024-01-06T08:48:22.020Z,601.00
2024-01-06T08:49:22.118Z,601.00
2024-01-06T08:50:22.158Z,600.00
2024-01-06T08:51:22.333Z,600.00
2024-01-06T08:52:22.315Z,602.00
2024-01-06T08:53:22.412Z,601.00
2024-01-06T08:54:22.583Z,602.00
2024-01-06T08:55:22.477Z,602.00
2024-01-06T08:56:22.488Z,601.00
2024-01-06T08:57:22.528Z,602.00
2024-01-06T08:58:22.542Z,602.00
2024-01-06T08:59:22.609Z,602.00
2024-01-06T09:00:22.641Z,602.00
2024-01-06T09:01:22.741Z,602.00
2024-01-06T09:02:22.721Z,603.00
2024-01-06T09:03:22.907Z,601.00
2024-01-06T09:04:22.969Z,604.00
2024-01-06T09:05:23.081Z,602.00
2024-01-06T09:06:23.104Z,603.00
2024-01-06T09:07:23.174Z,601.00
2024-01-06T09:08:23.245Z,603.00
2024-01-06T09:09:23.399Z,604.00
2024-01-06T09:10:23.480Z,603.00
2024-01-06T09:11:23.508Z,603.00
2024-01-06T09:12:23.651Z,602.00
2024-01-06T09:13:23.696Z,603.00
2024-01-06T09:14:24.306Z,603.00
2024-01-06T09:15:23.905Z,602.00
2024-01-06T09:16:23.958Z,603.00
2024-01-06T09:19:06.518Z,600.00
2024-01-06T09:19:45.069Z,600.00
2024-01-06T09:20:44.887Z,600.00
2024-01-06T09:21:44.932Z,600.00
2024-01-06T09:22:44.926Z,600.00
2024-01-06T09:23:48.956Z,600.00
2024-01-06T09:24:45.067Z,600.00
2024-01-06T09:25:45.013Z,600.00
2024-01-06T09:26:45.000Z,600.00
2024-01-06T09:27:45.110Z,600.00
2024-01-06T09:28:45.066Z,600.00
2024-01-06T09:29:45.080Z,600.00
2024-01-06T09:30:45.129Z,600.00
2024-01-06T09:31:45.193Z,600.00
2024-01-06T09:32:45.131Z,600.00
2024-01-06T09:33:45.201Z,599.00
2024-01-06T09:34:45.316Z,598.00
2024-01-06T09:35:45.211Z,595.00
2024-01-06T09:36:45.269Z,594.00
2024-01-06T09:37:45.243Z,593.00
2024-01-06T09:38:45.300Z,602.00
2024-01-06T09:39:45.350Z,602.00
2024-01-06T09:40:45.316Z,601.00
2024-01-06T09:41:45.406Z,602.00
2024-01-06T09:42:45.506Z,602.00
2024-01-06T09:43:45.555Z,602.00
2024-01-06T09:44:45.645Z,604.00
2024-01-06T09:45:45.736Z,602.00
2024-01-06T09:46:45.822Z,603.00
2024-01-06T09:47:45.924Z,603.00
2024-01-06T09:48:45.997Z,601.00
2024-01-06T09:49:45.923Z,601.00
2024-01-06T09:50:46.046Z,601.00
2024-01-06T09:51:45.936Z,599.00
2024-01-06T09:52:45.958Z,601.00
2024-01-06T09:53:45.984Z,600.00
2024-01-06T09:54:46.053Z,602.00
2024-01-06T09:55:46.115Z,603.00
2024-01-06T09:56:46.145Z,602.00
2024-01-06T09:57:46.215Z,602.00
2024-01-06T09:58:46.227Z,602.00
2024-01-06T09:59:46.212Z,602.00
2024-01-06T10:00:46.335Z,602.00
2024-01-06T10:01:46.343Z,602.00
2024-01-06T10:02:46.279Z,602.00
2024-01-06T10:03:46.374Z,602.00
2024-01-06T10:04:46.475Z,602.00
2024-01-06T10:05:46.397Z,602.00
2024-01-06T10:06:46.379Z,602.00
2024-01-06T10:07:46.387Z,603.00
2024-01-06T10:08:46.470Z,602.00
2024-01-06T10:09:46.536Z,602.00
2024-01-06T10:10:46.520Z,602.00
2024-01-06T10:11:46.539Z,601.00
2024-01-06T10:12:46.609Z,601.00
2024-01-06T10:13:46.574Z,600.00
2024-01-06T10:14:46.623Z,602.00
2024-01-06T10:15:46.695Z,602.00
2024-01-06T10:16:46.654Z,602.00
2024-01-06T10:17:46.731Z,600.00
2024-01-06T10:18:49.998Z,600.00
2024-01-06T10:19:47.829Z,602.00
2024-01-06T10:20:46.748Z,601.00
2024-01-06T10:21:46.824Z,598.00
2024-01-06T10:22:46.801Z,599.00
2024-01-06T10:23:46.950Z,600.00
2024-01-06T10:24:46.913Z,601.00
2024-01-06T10:25:46.902Z,603.00
2024-01-06T10:26:46.928Z,603.00
2024-01-06T10:27:46.984Z,602.00
2024-01-06T10:28:47.013Z,603.00
2024-01-06T10:29:47.034Z,603.00
2024-01-06T10:30:47.118Z,603.00
2024-01-06T10:31:49.101Z,603.00
2024-01-06T10:32:47.190Z,603.00
2024-01-06T10:33:47.315Z,603.00
2024-01-06T10:34:47.169Z,604.00
2024-01-06T10:35:47.189Z,604.00
2024-01-06T10:36:47.289Z,604.00
2024-01-06T10:37:47.252Z,604.00
2024-01-06T10:38:47.272Z,604.00
2024-01-06T10:39:47.301Z,605.00
2024-01-06T10:40:47.314Z,603.00
2024-01-06T10:41:47.338Z,604.00
2024-01-06T10:42:47.423Z,605.00
2024-01-06T10:43:47.667Z,606.00
2024-01-06T10:44:47.809Z,607.00
2024-01-06T10:45:47.517Z,602.00
2024-01-06T10:46:47.440Z,605.00
2024-01-06T10:47:47.473Z,605.00
2024-01-06T10:48:47.979Z,605.00
2024-01-06T10:49:47.584Z,605.00
2024-01-06T10:50:47.504Z,606.00
2024-01-06T10:51:47.585Z,605.00
2024-01-06T10:52:47.687Z,605.00
2024-01-06T10:53:47.573Z,605.00
2024-01-06T10:54:47.614Z,602.00
2024-01-06T10:55:47.618Z,602.00
2024-01-06T10:56:47.650Z,602.00
2024-01-06T10:57:47.707Z,602.00
2024-01-06T10:58:47.685Z,602.00
2024-01-06T10:59:47.703Z,603.00
2024-01-06T11:00:47.795Z,606.00
2024-01-06T11:01:47.826Z,604.00
2024-01-06T11:02:47.775Z,602.00
2024-01-06T11:03:47.868Z,606.00
2024-01-06T11:04:47.933Z,605.00
2024-01-06T11:05:47.989Z,604.00
2024-01-06T11:06:48.075Z,604.00
2024-01-06T11:07:48.106Z,606.00
2024-01-06T11:08:48.189Z,608.00
2024-01-06T11:09:48.295Z,604.00
2024-01-06T11:10:48.346Z,601.00
2024-01-06T11:11:48.441Z,604.00
2024-01-06T11:12:48.547Z,602.00
2024-01-06T11:13:48.596Z,604.00
2024-01-06T11:14:48.682Z,605.00
2024-01-06T11:15:48.799Z,605.00
2024-01-06T11:16:48.837Z,606.00
2024-01-06T11:17:48.987Z,603.00
2024-01-06T11:18:49.099Z,603.00
2024-01-06T11:19:49.409Z,606.00
2024-01-06T11:20:49.160Z,605.00
2024-01-06T11:21:49.259Z,604.00
2024-01-06T11:22:49.346Z,606.00
2024-01-06T11:23:49.425Z,605.00
2024-01-06T11:24:49.560Z,605.00
2024-01-06T11:25:49.497Z,605.00
2024-01-06T11:26:49.521Z,603.00
2024-01-06T11:27:49.612Z,606.00
2024-01-06T11:28:49.585Z,606.00
2024-01-06T11:29:49.575Z,605.00
2024-01-06T11:30:49.689Z,607.00
2024-01-06T11:31:49.674Z,605.00
2024-01-06T11:32:49.709Z,605.00
2024-01-06T11:33:49.726Z,606.00
2024-01-06T11:34:49.838Z,606.00
2024-01-06T11:35:49.730Z,602.00
2024-01-06T11:36:49.847Z,606.00
2024-01-06T11:37:49.746Z,606.00
2024-01-06T11:38:49.782Z,606.00
2024-01-06T11:39:49.820Z,607.00
2024-01-06T11:40:49.818Z,607.00
2024-01-06T11:41:49.851Z,607.00
2024-01-06T11:42:49.927Z,607.00
2024-01-06T11:43:49.892Z,607.00
2024-01-06T11:44:49.934Z,604.00
2024-01-06T11:45:49.959Z,608.00
2024-01-06T11:46:49.992Z,604.00
2024-01-06T11:47:50.155Z,606.00
2024-01-06T11:48:50.173Z,606.00
2024-01-06T11:49:50.134Z,604.00
2024-01-06T11:50:50.197Z,606.00
2024-01-06T11:51:50.365Z,608.00
2024-01-06T11:52:50.359Z,605.00
2024-01-06T11:53:50.476Z,602.00
2024-01-06T11:54:50.608Z,606.00
2024-01-06T11:55:50.603Z,601.00
2024-01-06T11:56:50.718Z,606.00
2024-01-06T11:57:50.797Z,605.00
2024-01-06T11:58:50.865Z,602.00
2024-01-06T11:59:50.938Z,606.00
2024-01-06T12:00:51.036Z,609.00
2024-01-06T12:01:51.130Z,609.00
2024-01-06T12:02:51.206Z,605.00
2024-01-06T12:03:51.286Z,605.00
2024-01-06T12:04:51.377Z,604.00
2024-01-06T12:05:51.440Z,604.00
2024-01-06T12:06:51.576Z,604.00
2024-01-06T12:07:51.464Z,604.00
2024-01-06T12:08:51.469Z,605.00
2024-01-06T12:09:51.570Z,605.00
2024-01-06T12:10:51.525Z,607.00
2024-01-06T12:11:51.539Z,608.00
2024-01-06T12:12:51.642Z,609.00
2024-01-06T12:13:51.560Z,604.00
2024-01-06T12:14:51.582Z,607.00
2024-01-06T12:15:51.628Z,608.00
2024-01-06T12:16:51.716Z,607.00
2024-01-06T12:17:51.915Z,608.00
2024-01-06T12:18:51.939Z,610.00
2024-01-06T12:19:51.920Z,606.00
2024-01-06T12:20:51.926Z,608.00
2024-01-06T12:21:52.008Z,606.00
2024-01-06T12:22:51.970Z,610.00
2024-01-06T12:23:52.017Z,611.00
2024-01-06T12:24:52.151Z,608.00
2024-01-06T12:25:52.042Z,606.00
2024-01-06T12:26:52.043Z,608.00
2024-01-06T12:27:52.074Z,608.00
2024-01-06T12:28:52.149Z,607.00
2024-01-06T12:29:52.223Z,608.00
2024-01-06T12:30:52.392Z,605.00
2024-01-06T12:31:52.519Z,608.00
2024-01-06T12:32:52.512Z,605.00
2024-01-06T12:33:52.620Z,607.00
2024-01-06T12:34:53.030Z,610.00
2024-01-06T12:35:52.668Z,609.00
2024-01-06T12:36:52.811Z,609.00
2024-01-06T12:37:52.716Z,608.00
2024-01-06T12:38:52.771Z,610.00
2024-01-06T12:39:52.869Z,609.00
2024-01-06T12:40:52.791Z,609.00
2024-01-06T12:41:52.815Z,607.00
2024-01-06T12:42:52.890Z,605.00
2024-01-06T12:43:52.859Z,608.00
2024-01-06T12:44:52.891Z,610.00
2024-01-06T12:45:52.914Z,610.00
2024-01-06T12:46:52.936Z,609.00
2024-01-06T12:47:53.072Z,610.00
2024-01-06T12:48:53.154Z,607.00
2024-01-06T12:49:53.072Z,610.00